Time;durP1;ratioP1;P1;durP2;ratioP2;P2;SDS_P1;SDS_P2;PMS_P1;PMS_P2;Temp;Humidity;BMP_temperature;BMP_pressure;BME280_temperature;BME280_humidity;BME280_pressure;Samples;Min_cycle;Max_cycle;Signal;HPM_P1;HPM_P2
2022/07/26 00:00:25;;;;;;;5.53;1.90;;;;;;;24.89;36.64;99923.27;1589779;88;20997;-77
2022/07/26 00:02:51;;;;;;;2.60;2.00;;;;;;;24.87;36.71;99927.85;1572111;91;21140;-77
2022/07/26 00:05:19;;;;;;;9.95;1.67;;;;;;;24.83;36.75;99923.80;1590486;89;21635;-77
2022/07/26 00:07:45;;;;;;;;;;;;;;;24.77;36.85;99919.03;1613033;88;21068;-77
2022/07/26 00:10:12;;;;;;;4.35;1.60;;;;;;;24.70;37.04;99909.95;1595984;87;20577;-77
2022/07/26 00:12:39;;;;;;;3.10;1.95;;;;;;;24.64;37.01;99917.09;1589328;88;21549;-77
2022/07/26 00:15:09;;;;;;;2.90;2.10;;;;;;;24.60;37.07;99916.51;1591609;88;28180;-77
2022/07/26 00:17:35;;;;;;;4.25;2.10;;;;;;;24.57;37.14;99915.94;1591687;88;21035;-77
2022/07/26 00:20:03;;;;;;;3.25;1.98;;;;;;;24.51;37.23;99930.51;1591563;90;21635;-77
2022/07/26 00:22:38;;;;;;;4.33;2.37;;;;;;;24.47;37.39;99930.90;1591502;88;21590;-77
2022/07/26 00:25:07;;;;;;;5.17;2.00;;;;;;;24.45;37.46;99932.34;1590909;89;21553;-77
2022/07/26 00:27:38;;;;;;;3.15;2.10;;;;;;;24.40;37.55;99932.77;1582098;90;21547;-77
2022/07/26 00:30:08;;;;;;;3.90;1.80;;;;;;;24.39;37.66;99921.84;1578379;90;21565;-77
2022/07/26 00:32:34;;;;;;;7.92;1.77;;;;;;;24.32;37.79;99919.36;1579017;89;21062;-77
2022/07/26 00:35:00;;;;;;;2.87;2.10;;;;;;;24.27;37.90;99923.36;1577956;90;21499;-77
2022/07/26 00:37:27;;;;;;;2.00;1.80;;;;;;;24.23;38.00;99917.94;1602294;89;21167;-77
2022/07/26 00:39:53;;;;;;;5.60;2.17;;;;;;;24.19;38.05;99906.79;1602563;89;21484;-77
2022/07/26 00:42:19;;;;;;;3.98;2.10;;;;;;;24.14;38.19;99908.98;1601951;89;21565;-77
2022/07/26 00:44:47;;;;;;;4.78;2.20;;;;;;;24.10;38.30;99913.68;1602096;88;21864;-77
2022/07/26 00:47:14;;;;;;;5.58;2.00;;;;;;;24.07;38.36;99918.38;1590742;88;21482;-77
2022/07/26 00:49:42;;;;;;;8.50;2.58;;;;;;;24.01;38.43;99915.77;1614962;87;21107;-77
2022/07/26 00:52:09;;;;;;;6.30;2.33;;;;;;;23.95;38.55;99908.83;1604215;88;21620;-77
2022/07/26 00:54:38;;;;;;;2.45;1.95;;;;;;;23.89;38.66;99908.05;1607020;88;21470;-77
2022/07/26 00:57:05;;;;;;;2.80;2.27;;;;;;;23.83;38.77;99912.52;1585652;89;20957;-77
2022/07/26 00:59:31;;;;;;;;;;;;;;;23.75;38.85;99925.02;1607491;88;21524;-77
2022/07/26 01:01:57;;;;;;;4.90;2.27;;;;;;;23.64;39.12;100000.28;1610346;87;20176;-77
2022/07/26 01:04:24;;;;;;;12.63;2.47;;;;;;;23.51;39.04;100007.46;1586071;89;21007;-77
2022/07/26 01:06:50;;;;;;;13.57;2.57;;;;;;;23.43;39.10;99998.83;1582560;89;20939;-77
2022/07/26 01:09:17;;;;;;;8.00;2.92;;;;;;;23.41;39.21;99998.11;1610138;89;21437;-77
2022/07/26 01:11:45;;;;;;;3.02;2.55;;;;;;;23.40;39.24;100004.34;1611196;87;21437;-77
2022/07/26 01:14:11;;;;;;;8.63;3.30;;;;;;;23.40;39.38;100006.98;1623712;87;21505;-77
2022/07/26 01:16:37;;;;;;;7.50;3.50;;;;;;;23.41;39.43;100007.34;1617647;87;20997;-77
2022/07/26 01:19:03;;;;;;;8.55;3.67;;;;;;;23.43;39.52;100003.63;1627423;87;20936;-77
2022/07/26 01:21:30;;;;;;;4.40;3.90;;;;;;;23.44;39.65;99997.88;1589283;89;21484;-77
2022/07/26 01:23:57;;;;;;;9.55;4.33;;;;;;;23.42;39.84;99994.52;1623444;87;20972;-77
2022/07/26 01:26:23;;;;;;;5.20;4.70;;;;;;;23.43;40.01;100000.15;1623344;87;27126;-77
2022/07/26 01:28:50;;;;;;;8.33;6.63;;;;;;;23.43;40.27;99989.11;1621939;87;21713;-77
2022/07/26 01:31:17;;;;;;;8.33;7.35;;;;;;;23.44;40.52;99996.55;1621160;87;21348;-77
2022/07/26 01:33:43;;;;;;;8.75;7.95;;;;;;;23.45;41.00;99984.55;1622430;87;21131;-77
2022/07/26 01:36:11;;;;;;;8.53;7.55;;;;;;;23.46;41.14;99976.16;1613786;87;20988;-77
2022/07/26 01:38:38;;;;;;;10.18;9.18;;;;;;;23.48;41.37;99984.80;1606423;87;21114;-77
2022/07/26 01:41:05;;;;;;;10.15;9.15;;;;;;;23.50;41.77;99991.27;1615890;87;21091;-77
2022/07/26 01:43:35;;;;;;;9.50;8.63;;;;;;;23.51;41.98;99998.23;1615383;87;21091;-77
2022/07/26 01:46:02;;;;;;;9.10;8.25;;;;;;;23.51;42.18;100002.19;1597940;89;21146;-77
2022/07/26 01:48:30;;;;;;;9.48;8.75;;;;;;;23.54;42.40;100014.69;1574055;89;21109;-77
2022/07/26 01:50:56;;;;;;;9.45;8.55;;;;;;;23.57;42.66;100008.33;1624786;87;21694;-77
2022/07/26 01:53:22;;;;;;;11.07;10.07;;;;;;;23.57;42.89;100022.84;1585537;89;21142;-77
2022/07/26 01:55:48;;;;;;;10.00;9.13;;;;;;;23.56;43.15;100021.16;1583965;89;20979;-77
2022/07/26 01:58:14;;;;;;;10.60;9.50;;;;;;;23.56;43.33;100025.12;1581912;89;21158;-77
2022/07/26 02:00:40;;;;;;;10.80;9.08;;;;;;;23.57;43.51;100025.48;1615393;87;21083;-77
2022/07/26 02:03:06;;;;;;;9.90;9.10;;;;;;;23.57;43.74;100028.13;1626280;87;21099;-77
2022/07/26 02:05:33;;;;;;;11.67;9.20;;;;;;;23.44;43.96;100012.38;1610223;87;21510;-77
2022/07/26 02:07:59;;;;;;;10.08;9.13;;;;;;;23.53;44.25;100037.21;1591619;88;21039;-77
2022/07/26 02:10:59;;;;;;;11.20;8.80;;;;;;;23.48;44.52;100042.85;1588564;88;21005;-77
2022/07/26 02:12:53;;;;;;;10.45;9.03;;;;;;;23.45;44.67;100054.48;1583956;88;21152;-77
2022/07/26 02:15:19;;;;;;;13.13;9.30;;;;;;;23.44;45.24;100071.28;1592503;88;21085;-77
2022/07/26 02:17:45;;;;;;;10.35;9.43;;;;;;;23.40;45.35;100073.80;1591709;88;21172;-77
2022/07/26 02:20:11;;;;;;;10.53;9.50;;;;;;;23.37;45.88;100076.70;1564984;88;21155;-77
2022/07/26 02:22:38;;;;;;;12.23;8.85;;;;;;;23.37;45.88;100076.70;1588233;88;22030;-77
2022/07/26 02:25:05;;;;;;;11.17;10.00;;;;;;;23.32;46.07;100085.45;1589169;88;21436;-77
2022/07/26 02:27:31;;;;;;;11.48;10.35;;;;;;;23.29;46.57;100086.17;1587472;90;21126;-77
2022/07/26 02:29:57;;;;;;;11.20;10.07;;;;;;;23.22;46.63;100098.98;1588130;88;20956;-77
2022/07/26 02:32:22;;;;;;;14.38;10.55;;;;;;;23.18;46.81;100104.62;1588248;88;21145;-77
2022/07/26 02:34:48;;;;;;;11.67;9.70;;;;;;;23.15;46.98;100115.41;1594615;88;21076;-77
2022/07/26 02:37:14;;;;;;;12.67;10.13;;;;;;;23.09;47.33;100116.23;1588074;90;21075;-77
2022/07/26 02:39:40;;;;;;;11.10;9.88;;;;;;;23.03;47.46;100128.56;1588221;90;21127;-77
2022/07/26 02:42:07;;;;;;;11.33;10.03;;;;;;;22.99;47.62;100109.97;1587043;88;21728;-77
2022/07/26 02:44:33;;;;;;;10.68;9.78;;;;;;;22.98;48.28;100093.78;1563269;90;21102;-77
2022/07/26 02:46:59;;;;;;;11.18;10.08;;;;;;;22.90;48.14;100090.05;1588183;88;21136;-77
2022/07/26 02:49:25;;;;;;;13.13;10.20;;;;;;;22.83;48.45;100089.70;1562453;91;20956;-77
2022/07/26 02:51:51;;;;;;;14.00;10.60;;;;;;;22.75;48.71;100110.01;1587890;88;21426;-77
2022/07/26 02:54:17;;;;;;;11.05;9.95;;;;;;;22.69;48.84;100110.47;1591150;88;21093;-77
2022/07/26 02:56:43;;;;;;;11.93;10.83;;;;;;;22.65;49.25;100106.84;1589169;88;21761;-77
2022/07/26 02:59:09;;;;;;;11.15;10.03;;;;;;;22.63;49.34;100110.91;1583324;88;21132;-77
2022/07/26 03:01:37;;;;;;;13.37;10.20;;;;;;;22.59;49.59;100115.20;1601650;87;20996;-77
2022/07/26 03:04:04;;;;;;;11.35;10.15;;;;;;;22.54;49.71;100116.02;1589623;88;21146;-77
2022/07/26 03:06:29;;;;;;;11.33;10.28;;;;;;;22.50;49.98;100123.31;1601058;88;21155;-77
2022/07/26 03:08:55;;;;;;;10.53;9.40;;;;;;;22.45;50.19;100130.23;1561445;90;21048;-77
2022/07/26 03:11:21;;;;;;;10.67;9.77;;;;;;;22.40;50.36;100120.50;1556232;90;21055;-77
2022/07/26 03:13:47;;;;;;;10.33;9.50;;;;;;;22.38;50.52;100126.36;1564308;90;21104;-77
2022/07/26 03:16:13;;;;;;;10.77;9.80;;;;;;;22.34;50.76;100122.30;1607466;88;21139;-77
2022/07/26 03:18:39;;;;;;;10.80;9.80;;;;;;;22.34;51.07;100133.31;1606171;88;20932;-77
2022/07/26 03:21:06;;;;;;;11.03;10.03;;;;;;;22.31;51.11;100133.53;1595736;88;21139;-77
2022/07/26 03:23:33;;;;;;;11.15;10.10;;;;;;;22.23;51.23;100131.92;1591999;88;21599;-77
2022/07/26 03:26:03;;;;;;;10.35;9.35;;;;;;;22.23;51.57;100137.19;1601554;88;21591;-77
2022/07/26 03:28:32;;;;;;;12.28;9.60;;;;;;;22.19;51.56;100122.09;1596013;88;21476;-77
2022/07/26 03:30:59;;;;;;;10.10;9.20;;;;;;;22.17;52.03;100142.42;1591328;88;21158;-77
2022/07/26 03:33:25;;;;;;;11.10;9.98;;;;;;;22.14;52.09;100141.33;1590562;88;21091;-77
2022/07/26 03:35:51;;;;;;;9.50;8.50;;;;;;;22.15;52.13;100146.12;1592420;88;21116;-77
2022/07/26 03:38:17;;;;;;;8.73;8.05;;;;;;;22.13;52.35;100139.17;1594319;88;21095;-77
2022/07/26 03:40:43;;;;;;;11.90;8.30;;;;;;;22.10;52.50;100135.91;1593782;88;21143;-77
2022/07/26 03:43:09;;;;;;;9.63;8.47;;;;;;;22.07;52.63;100125.13;1586828;88;20960;-77
2022/07/26 03:45:35;;;;;;;8.40;7.37;;;;;;;22.08;52.71;100123.33;1591226;88;21143;-77
2022/07/26 03:48:01;;;;;;;7.70;7.00;;;;;;;22.10;53.02;100123.59;1586535;88;21175;-77
2022/07/26 03:50:28;;;;;;;7.45;6.85;;;;;;;22.10;53.01;100141.18;1593666;88;21063;-77
2022/07/26 03:52:54;;;;;;;8.53;6.55;;;;;;;22.07;53.14;100154.09;1593237;88;21103;-77
2022/07/26 03:58:04;;;;;;;7.80;6.67;;;;;;;22.04;53.40;100170.58;1598320;88;21103;-77
2022/07/26 04:00:30;;;;;;;7.37;6.77;;;;;;;22.04;53.48;100189.84;1592869;88;21079;-77
2022/07/26 04:02:56;;;;;;;9.53;7.03;;;;;;;22.04;53.58;100195.59;1586996;88;21268;-77
2022/07/26 04:05:22;;;;;;;8.00;6.40;;;;;;;22.02;53.76;100202.28;1593360;88;21127;-77
2022/07/26 04:07:51;;;;;;;6.95;6.22;;;;;;;22.02;53.88;100198.81;1587378;88;21404;-77
2022/07/26 04:10:17;;;;;;;6.23;5.63;;;;;;;22.00;54.02;100211.20;1561906;90;21837;-77
2022/07/26 04:12:43;;;;;;;4.90;4.50;;;;;;;21.99;54.22;100212.16;1582627;88;21324;-77
2022/07/26 04:15:09;;;;;;;4.93;4.43;;;;;;;21.94;54.33;100218.21;1590253;88;21062;-77
2022/07/26 04:17:40;;;;;;;4.30;4.00;;;;;;;21.92;54.38;100214.37;1586404;88;21091;-77
2022/07/26 04:20:09;;;;;;;5.03;4.10;;;;;;;21.90;54.39;100204.42;1587043;88;21149;-77
2022/07/26 04:22:36;;;;;;;5.30;3.77;;;;;;;21.83;54.53;100203.66;1589049;88;20987;-77
2022/07/26 04:25:06;;;;;;;4.80;3.90;;;;;;;21.77;54.64;100209.72;1586453;90;20965;-77
2022/07/26 04:27:32;;;;;;;5.10;4.42;;;;;;;21.70;54.72;100207.61;1586219;88;20986;-77
2022/07/26 04:29:59;;;;;;;4.40;4.00;;;;;;;21.69;54.80;100217.30;1587667;88;20917;-77
2022/07/26 04:32:28;;;;;;;5.17;3.37;;;;;;;21.73;54.84;100235.03;1594894;88;20956;-77
2022/07/26 04:34:55;;;;;;;5.35;4.22;;;;;;;21.75;54.87;100239.25;1577072;90;39715;-77
2022/07/26 04:37:21;;;;;;;6.17;4.53;;;;;;;21.77;54.99;100248.36;1588029;88;20918;-77
2022/07/26 04:39:47;;;;;;;6.87;3.90;;;;;;;21.76;54.98;100245.36;1587328;88;21427;-77
2022/07/26 04:42:13;;;;;;;7.50;4.00;;;;;;;21.76;55.04;100247.98;1586786;90;20981;-77
2022/07/26 04:44:39;;;;;;;3.67;3.33;;;;;;;21.74;55.08;100249.88;1587710;88;20972;-77
2022/07/26 04:47:06;;;;;;;4.37;3.30;;;;;;;21.68;55.41;100246.34;1590687;88;21079;-77
2022/07/26 04:49:32;;;;;;;3.77;3.30;;;;;;;21.68;55.41;100246.34;1585830;90;21135;-77
2022/07/26 04:51:58;;;;;;;3.15;2.77;;;;;;;21.67;55.28;100256.03;1588674;88;21152;-77
2022/07/26 04:54:25;;;;;;;3.83;2.75;;;;;;;21.65;55.31;100256.61;1585544;90;26565;-77
2022/07/26 04:56:51;;;;;;;3.70;3.22;;;;;;;21.63;55.35;100260.29;1583637;88;21112;-77
2022/07/26 04:59:17;;;;;;;4.23;3.00;;;;;;;21.62;55.48;100254.66;1585862;90;21004;-77
2022/07/26 05:01:44;;;;;;;4.30;2.87;;;;;;;21.59;55.53;100250.44;1563014;89;21107;-77
2022/07/26 05:04:10;;;;;;;3.10;2.70;;;;;;;21.55;55.53;100258.17;1505722;93;21145;-77
2022/07/26 05:06:36;;;;;;;4.17;2.53;;;;;;;21.51;55.61;100263.27;1535037;93;20982;-77
2022/07/26 05:09:03;;;;;;;5.53;2.62;;;;;;;21.54;55.62;100283.27;1559069;90;21162;-77
2022/07/26 05:11:29;;;;;;;4.17;2.55;;;;;;;21.52;55.68;100282.05;1558843;91;21017;-77
2022/07/26 05:13:55;;;;;;;3.13;2.30;;;;;;;21.51;55.74;100293.52;1559953;91;21025;-77
2022/07/26 05:16:21;;;;;;;3.27;2.30;;;;;;;21.48;55.69;100289.31;1559551;91;21084;-77
2022/07/26 05:18:47;;;;;;;3.93;2.50;;;;;;;21.40;55.76;100287.66;1535019;91;21677;-77
2022/07/26 05:21:13;;;;;;;4.90;2.20;;;;;;;21.35;55.76;100292.38;1536965;91;21003;-77
2022/07/26 05:23:39;;;;;;;3.23;1.87;;;;;;;21.34;55.81;100283.27;1559921;90;20928;-77
2022/07/26 05:26:05;;;;;;;6.03;2.13;;;;;;;21.31;55.79;100275.14;1531251;93;20977;-77
2022/07/26 05:28:31;;;;;;;3.50;2.43;;;;;;;21.27;55.81;100269.71;1559676;91;20961;-77
2022/07/26 05:30:57;;;;;;;4.17;1.73;;;;;;;21.26;55.88;100271.13;1559841;90;21077;-77
2022/07/26 05:33:23;;;;;;;3.77;2.03;;;;;;;21.21;55.92;100272.74;1530907;92;20937;-77
2022/07/26 05:35:49;;;;;;;4.77;1.87;;;;;;;21.21;55.96;100283.26;1537716;93;21765;-77
2022/07/26 05:38:15;;;;;;;4.47;2.13;;;;;;;21.19;55.96;100292.16;1506907;95;21535;-77
2022/07/26 05:40:41;;;;;;;4.90;2.20;;;;;;;21.18;55.96;100297.89;1532798;91;21081;-77
2022/07/26 05:43:07;;;;;;;4.50;2.33;;;;;;;21.19;56.04;100314.04;1531513;91;21659;-77
2022/07/26 05:45:33;;;;;;;2.03;1.87;;;;;;;21.21;56.05;100313.94;1513642;93;21033;-77
2022/07/26 05:47:59;;;;;;;3.10;2.02;;;;;;;21.21;56.07;100308.24;1537199;91;21396;-77
2022/07/26 05:50:26;;;;;;;3.60;2.17;;;;;;;21.22;56.06;100307.77;1513460;93;20989;-77
2022/07/26 05:52:52;;;;;;;5.87;2.00;;;;;;;21.22;56.14;100302.52;1529419;91;20968;-77
2022/07/26 05:55:18;;;;;;;4.27;1.77;;;;;;;21.24;56.17;100298.00;1541655;91;21491;-77
2022/07/26 05:57:46;;;;;;;4.60;2.50;;;;;;;21.21;56.18;100298.16;1566251;90;21810;-77
2022/07/26 06:00:13;;;;;;;3.00;1.85;;;;;;;21.27;56.20;100303.05;1558938;90;21115;-77
2022/07/26 06:02:40;;;;;;;5.00;2.00;;;;;;;21.27;56.30;100305.22;1581892;88;21028;-77
2022/07/26 06:05:07;;;;;;;4.97;2.58;;;;;;;21.29;56.38;100310.38;1587773;88;21650;-77
2022/07/26 06:07:33;;;;;;;5.12;2.20;;;;;;;21.32;56.41;100320.66;1584099;88;22032;-77
2022/07/26 06:09:59;;;;;;;2.75;2.08;;;;;;;21.32;56.47;100328.55;1561267;90;21127;-77
2022/07/26 06:12:25;;;;;;;4.75;2.45;;;;;;;21.35;56.75;100329.20;1565619;90;21106;-77
2022/07/26 06:14:52;;;;;;;3.50;2.55;;;;;;;21.37;56.59;100334.36;1587477;88;21086;-77
2022/07/26 06:17:18;;;;;;;4.05;2.42;;;;;;;21.40;56.63;100333.69;1581672;88;21107;-77
2022/07/26 06:19:44;;;;;;;5.13;2.50;;;;;;;21.43;56.73;100337.91;1588433;88;20963;-77
2022/07/26 06:22:10;;;;;;;2.75;2.12;;;;;;;21.52;56.82;100340.41;1557996;90;21063;-77
2022/07/26 06:24:36;;;;;;;3.08;2.40;;;;;;;21.62;56.80;100344.97;1585975;88;21104;-77
2022/07/26 06:27:03;;;;;;;3.67;2.10;;;;;;;21.68;56.86;100348.52;1591474;88;21422;-77
2022/07/26 06:29:30;;;;;;;3.58;2.12;;;;;;;21.73;56.86;100350.36;1593403;88;21086;-77
2022/07/26 06:31:56;;;;;;;4.53;2.50;;;;;;;21.74;56.88;100349.42;1570706;88;21522;-77
2022/07/26 06:34:23;;;;;;;4.75;2.70;;;;;;;21.79;56.96;100351.75;1589608;88;21107;-77
2022/07/26 06:36:49;;;;;;;3.65;2.42;;;;;;;21.84;57.00;100349.62;1591150;88;21177;-77
2022/07/26 06:39:15;;;;;;;4.87;2.80;;;;;;;;;;1584306;88;21159;-77
2022/07/26 06:41:41;;;;;;;4.97;2.83;;;;;;;21.96;57.12;100357.17;1557947;90;20942;-77
2022/07/26 06:44:07;;;;;;;4.95;2.58;;;;;;;21.99;57.13;100364.86;1585357;87;21115;-77
2022/07/26 06:46:35;;;;;;;3.10;2.40;;;;;;;22.01;57.14;100364.29;1584804;88;21181;-77
2022/07/26 06:49:01;;;;;;;4.35;2.77;;;;;;;22.02;57.20;100366.85;1581209;88;21176;-77
2022/07/26 06:51:27;;;;;;;3.00;2.37;;;;;;;22.09;57.27;100362.02;1585490;88;21088;-78
2022/07/26 06:53:53;;;;;;;5.90;2.90;;;;;;;22.29;57.39;100368.56;1586279;88;21088;-78
2022/07/26 06:56:20;;;;;;;3.37;2.70;;;;;;;22.50;57.38;100359.15;1582595;88;21159;-79
2022/07/26 06:58:46;;;;;;;6.50;2.70;;;;;;;22.62;57.30;100362.73;1584245;88;21107;-79
2022/07/26 07:01:13;;;;;;;2.90;2.55;;;;;;;22.59;57.29;100366.41;1588437;88;21036;-79
2022/07/26 07:03:40;;;;;;;2.77;2.47;;;;;;;22.65;57.37;100364.67;1585519;88;21079;-78
2022/07/26 07:06:06;;;;;;;5.30;2.85;;;;;;;22.74;57.42;100365.82;1582332;88;21147;-78
2022/07/26 07:08:32;;;;;;;5.15;2.98;;;;;;;22.91;57.47;100368.11;1581894;88;21114;-78
2022/07/26 07:10:59;;;;;;;4.42;2.83;;;;;;;23.15;57.48;100366.83;1572191;89;21745;-78
2022/07/26 07:13:25;;;;;;;5.33;2.98;;;;;;;23.26;57.38;100372.66;1570388;90;22077;-78
2022/07/26 07:15:51;;;;;;;6.70;3.17;;;;;;;23.34;57.32;100369.83;1566750;90;21080;-78
2022/07/26 07:18:17;;;;;;;5.00;2.93;;;;;;;23.39;57.32;100368.17;1592873;88;21087;-78
2022/07/26 07:20:43;;;;;;;5.25;2.85;;;;;;;23.43;57.29;100365.16;1591705;88;21125;-78
2022/07/26 07:23:10;;;;;;;5.33;3.00;;;;;;;23.61;57.38;100365.64;1594647;88;21147;-78
2022/07/26 07:25:36;;;;;;;6.35;3.10;;;;;;;23.86;57.31;100368.62;1594114;88;21082;-78
2022/07/26 07:28:02;;;;;;;5.10;2.52;;;;;;;23.99;57.16;100377.75;1599446;87;21072;-78
2022/07/26 07:30:28;;;;;;;5.47;2.77;;;;;;;24.06;57.12;100377.17;1603830;88;21075;-78
2022/07/26 07:32:55;;;;;;;4.35;2.55;;;;;;;24.16;57.07;100373.83;1591232;88;21564;-78
2022/07/26 07:35:21;;;;;;;6.33;2.92;;;;;;;24.27;57.11;100374.73;1542001;92;21141;-78
2022/07/26 07:37:47;;;;;;;3.23;2.63;;;;;;;24.33;56.93;100383.50;1594999;88;20980;-78
2022/07/26 07:40:14;;;;;;;3.63;2.93;;;;;;;24.42;56.93;100381.95;1546537;91;21006;-78
2022/07/26 07:42:40;;;;;;;4.62;2.77;;;;;;;24.61;56.84;100376.05;1595715;88;21523;-78
2022/07/26 07:45:08;;;;;;;3.30;2.67;;;;;;;24.67;56.82;100354.42;1592427;88;21075;-77
2022/07/26 07:47:34;;;;;;;3.92;2.85;;;;;;;24.93;56.72;100369.55;1591881;88;21528;-77
2022/07/26 07:50:00;;;;;;;5.83;2.70;;;;;;;25.08;56.58;100376.27;1598914;88;21111;-77
2022/07/26 07:52:26;;;;;;;5.92;2.83;;;;;;;25.27;56.46;100375.63;1593942;88;21078;-77
2022/07/26 07:54:53;;;;;;;6.37;2.65;;;;;;;25.36;56.25;100369.59;1591037;88;22213;-77
2022/07/26 07:57:19;;;;;;;8.55;3.12;;;;;;;25.49;56.23;100368.07;1588400;88;21043;-77
2022/07/26 07:59:45;;;;;;;6.37;2.83;;;;;;;25.58;56.00;100372.61;1593735;88;21590;-77
2022/07/26 08:02:13;;;;;;;6.00;2.65;;;;;;;25.69;56.00;100375.25;1588443;88;21950;-77
2022/07/26 08:04:40;;;;;;;6.50;2.72;;;;;;;25.83;55.80;100377.59;1592581;88;21517;-77
2022/07/26 08:07:06;;;;;;;6.78;2.60;;;;;;;25.89;55.55;100376.24;1596081;88;21465;-77
2022/07/26 08:09:32;;;;;;;6.50;2.70;;;;;;;25.97;55.49;100379.09;1599780;88;21135;-77
2022/07/26 08:11:58;;;;;;;6.47;2.70;;;;;;;26.12;55.35;100384.88;1598438;88;21725;-77
2022/07/26 08:14:24;;;;;;;5.75;3.62;;;;;;;26.25;55.22;100381.06;1590347;88;22412;-77
2022/07/26 08:16:51;;;;;;;4.15;2.30;;;;;;;26.40;55.03;100384.73;1576221;89;21430;-77
2022/07/26 08:19:17;;;;;;;9.85;2.85;;;;;;;26.47;54.84;100392.03;1603787;88;21569;-77
2022/07/26 08:21:44;;;;;;;5.70;2.43;;;;;;;26.44;54.51;100398.09;1593172;88;20989;-77
2022/07/26 08:24:12;;;;;;;3.50;2.30;;;;;;;26.39;54.49;100389.20;1583965;88;22544;-77
2022/07/26 08:26:38;;;;;;;5.50;2.60;;;;;;;26.47;54.42;100392.03;1588332;88;21737;-77
2022/07/26 08:29:04;;;;;;;8.90;2.30;;;;;;;26.66;53.91;100400.55;1588611;88;21083;-77
2022/07/26 08:31:30;;;;;;;5.40;2.60;;;;;;;26.67;53.88;100407.04;1594900;88;21604;-77
2022/07/26 08:33:56;;;;;;;3.47;2.57;;;;;;;26.63;54.05;100406.95;1592854;88;21529;-77
2022/07/26 08:36:23;;;;;;;3.85;2.17;;;;;;;26.63;54.05;100406.95;1590689;88;22146;-77
2022/07/26 08:38:50;;;;;;;5.87;2.45;;;;;;;26.60;53.66;100405.89;1587957;88;21096;-77
2022/07/26 08:41:17;;;;;;;4.00;2.65;;;;;;;26.47;53.34;100411.08;1569794;88;21536;-77
2022/07/26 08:43:46;;;;;;;6.15;2.50;;;;;;;26.43;53.44;100403.03;1585086;88;21564;-77
2022/07/26 08:46:12;;;;;;;4.45;2.35;;;;;;;26.51;53.29;100406.71;1590600;88;21095;-77
2022/07/26 08:48:38;;;;;;;5.60;2.70;;;;;;;26.62;53.21;100404.44;1558665;90;21007;-77
2022/07/26 08:51:08;;;;;;;6.47;2.83;;;;;;;26.70;53.17;100396.66;1555603;90;21115;-77
2022/07/26 08:53:36;;;;;;;3.92;2.22;;;;;;;26.67;53.01;100358.45;1538078;91;21679;-77
2022/07/26 08:56:04;;;;;;;4.17;2.17;;;;;;;26.98;52.84;100407.90;1565428;90;21584;-77
2022/07/26 08:58:35;;;;;;;8.25;2.33;;;;;;;27.02;52.65;100403.16;1589571;87;22250;-77
2022/07/26 09:01:12;;;;;;;4.42;1.77;;;;;;;27.05;52.46;100404.19;1588736;88;21095;-77
2022/07/26 09:03:39;;;;;;;4.53;2.17;;;;;;;27.09;52.13;100408.73;1587288;87;21517;-77
2022/07/26 09:06:16;;;;;;;;;;;;;;;26.97;51.79;100402.73;1591198;88;22356;-77
2022/07/26 09:08:45;;;;;;;4.10;1.87;;;;;;;26.86;51.47;100403.63;1586431;88;20228;-77
2022/07/26 09:11:27;;;;;;;3.70;1.98;;;;;;;26.81;51.72;100411.16;1566635;90;21639;-77
2022/07/26 09:14:01;;;;;;;3.85;2.12;;;;;;;26.82;51.45;100414.16;1588929;88;21515;-77
2022/07/26 09:16:29;;;;;;;3.77;1.82;;;;;;;26.75;51.18;100401.08;1556200;90;21138;-77
2022/07/26 09:19:16;;;;;;;4.37;2.08;;;;;;;26.68;51.06;100409.20;1590103;88;21139;-77
2022/07/26 09:21:42;;;;;;;4.90;2.00;;;;;;;26.60;50.94;100407.22;1585638;88;21602;-77
2022/07/26 09:24:10;;;;;;;4.35;1.87;;;;;;;26.50;50.71;100414.80;1581396;88;21025;-77
2022/07/26 09:26:36;;;;;;;6.12;2.47;;;;;;;26.41;50.63;100408.95;1586325;88;21147;-77
2022/07/26 09:29:06;;;;;;;4.05;2.27;;;;;;;26.40;50.34;100405.46;1589160;88;21084;-77
2022/07/26 09:31:34;;;;;;;4.83;2.20;;;;;;;26.40;50.34;100405.46;1589504;88;22232;-77
2022/07/26 09:34:01;;;;;;;5.10;2.20;;;;;;;26.44;50.25;100408.69;1588063;88;21630;-77
2022/07/26 09:36:28;;;;;;;4.08;1.92;;;;;;;26.43;50.02;100403.03;1590976;88;21100;-77
2022/07/26 09:38:59;;;;;;;2.75;1.80;;;;;;;26.35;49.89;100408.50;1583992;88;21412;-77
2022/07/26 09:41:36;;;;;;;2.60;1.77;;;;;;;26.28;49.71;100411.29;1584846;88;21551;-77
2022/07/26 09:44:24;;;;;;;4.25;1.82;;;;;;;26.27;49.69;100412.26;1583341;88;21103;-77
2022/07/26 09:46:57;;;;;;;7.08;1.90;;;;;;;26.28;49.53;100407.31;1593602;88;21700;-77
2022/07/26 09:49:25;;;;;;;4.22;1.70;;;;;;;26.26;49.24;100412.39;1587042;88;21564;-77
2022/07/26 09:51:53;;;;;;;6.12;1.45;;;;;;;26.14;49.13;100408.96;1587053;88;21138;-77
2022/07/26 09:54:32;;;;;;;2.77;1.92;;;;;;;26.04;49.08;100413.34;1585644;88;21144;-77
2022/07/26 09:57:00;;;;;;;3.70;1.77;;;;;;;26.02;49.11;100413.96;1579054;88;21168;-77
2022/07/26 09:59:28;;;;;;;8.90;3.27;;;;;;;26.09;48.96;100410.31;1589377;88;21084;-77
2022/07/26 10:01:56;;;;;;;4.12;1.70;;;;;;;26.12;48.90;100416.20;1588812;88;21672;-77
2022/07/26 10:04:23;;;;;;;4.62;1.60;;;;;;;26.18;48.82;100418.82;1598782;88;21012;-77
2022/07/26 10:06:50;;;;;;;1.82;1.40;;;;;;;26.19;48.75;100414.72;1594500;88;20913;-77
2022/07/26 10:09:17;;;;;;;3.77;1.52;;;;;;;26.16;48.59;100412.80;1597676;88;21383;-77
2022/07/26 10:12:05;;;;;;;2.90;1.70;;;;;;;26.09;48.51;100420.44;1586992;87;139639;-77
2022/07/26 10:14:46;;;;;;;3.42;1.70;;;;;;;26.08;48.41;100423.21;1623746;85;521523;-77
2022/07/26 10:17:38;;;;;;;2.42;1.70;;;;;;;26.01;48.30;100425.05;1630571;86;20903;-77
2022/07/26 10:20:10;;;;;;;2.02;1.60;;;;;;;25.87;48.11;100430.68;1631806;86;20973;-77
2022/07/26 10:22:46;;;;;;;2.87;1.62;;;;;;;25.68;48.00;100421.23;1630237;86;20965;-77
2022/07/26 10:25:24;;;;;;;3.77;1.57;;;;;;;25.53;47.93;100438.34;1623815;86;20886;-77
2022/07/26 10:27:54;;;;;;;2.05;1.55;;;;;;;25.40;47.95;100432.75;1631686;86;21381;-77
2022/07/26 10:30:25;;;;;;;3.55;1.60;;;;;;;25.39;47.88;100432.88;1626943;86;21018;-77
2022/07/26 10:33:02;;;;;;;3.60;1.50;;;;;;;25.35;47.86;100441.55;1626293;86;20981;-77
2022/07/26 10:35:39;;;;;;;2.37;1.70;;;;;;;25.42;47.90;100436.59;1627127;86;21002;-77
2022/07/26 10:38:13;;;;;;;1.92;1.77;;;;;;;25.49;47.90;100428.97;1629468;86;20932;-77
2022/07/26 10:40:58;;;;;;;4.65;1.92;;;;;;;25.56;47.83;100427.02;1626128;86;21393;-77
2022/07/26 10:43:26;;;;;;;5.17;1.98;;;;;;;25.57;47.80;100423.89;1626960;86;20986;-76
2022/07/26 10:46:22;;;;;;;3.08;1.60;;;;;;;25.61;47.79;100420.87;1627749;86;20965;-76
2022/07/26 10:49:03;;;;;;;2.20;1.47;;;;;;;25.71;47.84;100417.02;1628284;86;20944;-76
2022/07/26 10:51:35;;;;;;;1.80;1.60;;;;;;;25.78;47.81;100425.30;1630850;86;20976;-76
2022/07/26 10:54:12;;;;;;;3.35;1.55;;;;;;;25.93;47.69;100430.17;1624625;86;20922;-76
2022/07/26 10:56:38;;;;;;;3.37;1.20;;;;;;;26.02;47.62;100434.67;1626762;86;20954;-76
2022/07/26 10:59:05;;;;;;;2.50;1.50;;;;;;;26.09;47.54;100429.70;1627690;86;21553;-76
2022/07/26 11:01:39;;;;;;;4.08;1.50;;;;;;;26.20;47.47;100424.83;1626657;86;20950;-76
2022/07/26 11:04:20;;;;;;;1.85;1.35;;;;;;;26.23;47.24;100422.77;1623519;86;21035;-77
2022/07/26 11:06:47;;;;;;;2.60;1.67;;;;;;;26.27;47.17;100425.52;1607471;87;20902;-77
2022/07/26 11:09:14;;;;;;;1.42;1.05;;;;;;;26.36;47.08;100423.44;1609975;87;21473;-77
2022/07/26 11:11:41;;;;;;;1.82;1.15;;;;;;;26.50;46.89;100428.05;1615284;87;20989;-77
2022/07/26 11:14:10;;;;;;;1.25;0.95;;;;;;;26.55;46.61;100425.82;1615426;87;21457;-77
2022/07/26 11:16:46;;;;;;;1.22;0.90;;;;;;;26.60;46.51;100427.11;1605255;87;20929;-77
2022/07/26 11:19:17;;;;;;;;;;;;;;;26.60;46.13;100423.61;1610323;87;21395;-77
2022/07/26 11:21:45;;;;;;;3.17;1.32;;;;;;;26.62;45.98;100423.84;1600521;87;20116;-77
2022/07/26 11:24:12;;;;;;;2.45;1.42;;;;;;;26.63;46.00;100422.03;1607649;87;21329;-77
2022/07/26 11:26:44;;;;;;;1.67;1.15;;;;;;;26.64;45.91;100427.69;1593930;88;20981;-77
2022/07/26 11:29:10;;;;;;;1.22;1.00;;;;;;;26.61;45.71;100426.63;1580680;89;20940;-77
2022/07/26 11:31:44;;;;;;;2.25;1.20;;;;;;;26.63;45.69;100425.52;1576348;89;20985;-77